sensor_id;sensor_type;location;lat;lon;timestamp;pressure;altitude;pressure_sealevel;temperature;humidity
48555;BME280;34336;48.270;16.716;2023-06-26T00:00:11;109325.25;;;18.16;70.99
48555;BME280;34336;48.270;16.716;2023-06-26T00:02:39;109325.25;;;18.16;71.33
48555;BME280;34336;48.270;16.716;2023-06-26T00:05:06;109325.25;;;18.16;72.11
48555;BME280;34336;48.270;16.716;2023-06-26T00:07:34;109325.25;;;18.16;72.48
48555;BME280;34336;48.270;16.716;2023-06-26T00:10:02;109325.25;;;18.16;72.96
48555;BME280;34336;48.270;16.716;2023-06-26T00:12:30;109325.25;;;18.16;73.38
48555;BME280;34336;48.270;16.716;2023-06-26T00:14:57;109325.25;;;18.16;73.47
48555;BME280;34336;48.270;16.716;2023-06-26T00:17:25;109325.25;;;18.16;73.75
48555;BME280;34336;48.270;16.716;2023-06-26T00:19:53;109325.25;;;18.16;73.54
48555;BME280;34336;48.270;16.716;2023-06-26T00:22:20;109325.25;;;18.16;73.69
48555;BME280;34336;48.270;16.716;2023-06-26T00:24:49;109325.25;;;18.16;73.91
48555;BME280;34336;48.270;16.716;2023-06-26T00:27:16;109325.25;;;18.16;74.20
48555;BME280;34336;48.270;16.716;2023-06-26T00:29:44;109325.25;;;18.16;74.77
48555;BME280;34336;48.270;16.716;2023-06-26T00:32:12;109325.25;;;18.16;75.30
48555;BME280;34336;48.270;16.716;2023-06-26T00:34:38;109325.25;;;18.16;75.28
48555;BME280;34336;48.270;16.716;2023-06-26T00:37:07;109325.25;;;18.16;75.29
48555;BME280;34336;48.270;16.716;2023-06-26T00:39:34;109325.25;;;18.16;75.47
48555;BME280;34336;48.270;16.716;2023-06-26T00:42:02;109325.25;;;18.16;75.56
48555;BME280;34336;48.270;16.716;2023-06-26T00:44:29;109325.25;;;18.16;75.78
48555;BME280;34336;48.270;16.716;2023-06-26T00:46:57;109325.25;;;18.16;75.39
48555;BME280;34336;48.270;16.716;2023-06-26T00:49:25;109325.25;;;18.16;75.51
48555;BME280;34336;48.270;16.716;2023-06-26T00:51:54;109325.25;;;18.16;75.80
48555;BME280;34336;48.270;16.716;2023-06-26T00:54:22;109325.25;;;18.16;75.53
48555;BME280;34336;48.270;16.716;2023-06-26T00:56:50;109325.25;;;18.16;75.39
48555;BME280;34336;48.270;16.716;2023-06-26T00:59:17;109325.25;;;18.16;75.68
48555;BME280;34336;48.270;16.716;2023-06-26T01:01:47;109325.25;;;18.16;75.89
48555;BME280;34336;48.270;16.716;2023-06-26T01:04:15;109325.25;;;18.16;76.19
48555;BME280;34336;48.270;16.716;2023-06-26T01:06:46;109325.25;;;18.16;76.71
48555;BME280;34336;48.270;16.716;2023-06-26T01:09:17;109325.25;;;18.16;76.74
48555;BME280;34336;48.270;16.716;2023-06-26T01:11:45;109325.25;;;18.16;77.37
48555;BME280;34336;48.270;16.716;2023-06-26T01:14:13;109325.25;;;18.16;78.11
48555;BME280;34336;48.270;16.716;2023-06-26T01:16:43;109325.25;;;18.16;78.72
48555;BME280;34336;48.270;16.716;2023-06-26T01:19:19;109325.25;;;18.16;79.27
48555;BME280;34336;48.270;16.716;2023-06-26T01:22:27;109325.25;;;18.16;79.54
48555;BME280;34336;48.270;16.716;2023-06-26T01:25:01;109325.25;;;18.16;79.46
48555;BME280;34336;48.270;16.716;2023-06-26T01:27:31;109325.25;;;18.16;80.12
48555;BME280;34336;48.270;16.716;2023-06-26T01:30:03;109325.25;;;18.16;80.30
48555;BME280;34336;48.270;16.716;2023-06-26T01:32:34;109325.25;;;18.16;80.45
48555;BME280;34336;48.270;16.716;2023-06-26T01:35:02;109325.25;;;18.16;80.73
48555;BME280;34336;48.270;16.716;2023-06-26T01:37:30;109325.25;;;18.16;80.69
48555;BME280;34336;48.270;16.716;2023-06-26T01:39:58;109325.25;;;18.16;81.07
48555;BME280;34336;48.270;16.716;2023-06-26T01:42:26;109325.25;;;18.16;81.14
48555;BME280;34336;48.270;16.716;2023-06-26T01:44:55;109325.25;;;18.16;81.39
48555;BME280;34336;48.270;16.716;2023-06-26T01:47:24;109325.25;;;18.16;81.46
48555;BME280;34336;48.270;16.716;2023-06-26T01:52:27;109325.25;;;18.16;81.49
48555;BME280;34336;48.270;16.716;2023-06-26T01:57:26;109325.25;;;18.16;82.00
48555;BME280;34336;48.270;16.716;2023-06-26T01:59:54;109325.25;;;18.16;82.18
48555;BME280;34336;48.270;16.716;2023-06-26T02:02:23;109325.25;;;18.16;82.69
48555;BME280;34336;48.270;16.716;2023-06-26T02:04:52;109325.25;;;18.16;83.21
48555;BME280;34336;48.270;16.716;2023-06-26T02:07:20;109325.25;;;18.16;83.31
48555;BME280;34336;48.270;16.716;2023-06-26T02:09:48;109325.25;;;18.16;83.13
48555;BME280;34336;48.270;16.716;2023-06-26T02:12:15;109325.25;;;18.16;83.58
48555;BME280;34336;48.270;16.716;2023-06-26T02:14:43;109325.25;;;18.16;84.13
48555;BME280;34336;48.270;16.716;2023-06-26T02:17:10;109325.25;;;18.16;84.40
48555;BME280;34336;48.270;16.716;2023-06-26T02:19:38;109325.25;;;18.16;84.28
48555;BME280;34336;48.270;16.716;2023-06-26T02:22:12;109325.25;;;18.16;84.26
48555;BME280;34336;48.270;16.716;2023-06-26T02:24:39;109325.25;;;18.16;84.42
48555;BME280;34336;48.270;16.716;2023-06-26T02:27:07;109325.25;;;18.16;84.76
48555;BME280;34336;48.270;16.716;2023-06-26T02:29:35;109325.25;;;18.16;85.10
48555;BME280;34336;48.270;16.716;2023-06-26T02:32:05;109325.25;;;18.16;85.08
48555;BME280;34336;48.270;16.716;2023-06-26T02:34:33;109325.25;;;18.16;85.46
48555;BME280;34336;48.270;16.716;2023-06-26T02:37:01;109325.25;;;18.16;86.22
48555;BME280;34336;48.270;16.716;2023-06-26T02:39:29;109325.25;;;18.16;86.20
48555;BME280;34336;48.270;16.716;2023-06-26T02:41:56;109325.25;;;18.16;85.66
48555;BME280;34336;48.270;16.716;2023-06-26T02:44:24;109325.25;;;18.16;85.06
48555;BME280;34336;48.270;16.716;2023-06-26T02:46:53;109325.25;;;18.16;84.92
48555;BME280;34336;48.270;16.716;2023-06-26T02:49:20;109325.25;;;18.16;85.32
48555;BME280;34336;48.270;16.716;2023-06-26T02:51:49;109325.25;;;18.16;85.64
48555;BME280;34336;48.270;16.716;2023-06-26T02:54:23;109325.25;;;18.16;86.35
48555;BME280;34336;48.270;16.716;2023-06-26T02:56:54;109325.25;;;18.16;86.77
48555;BME280;34336;48.270;16.716;2023-06-26T02:59:26;109325.25;;;18.16;86.38
48555;BME280;34336;48.270;16.716;2023-06-26T03:01:54;109325.25;;;18.16;85.85
48555;BME280;34336;48.270;16.716;2023-06-26T03:04:28;109325.25;;;18.16;85.32
48555;BME280;34336;48.270;16.716;2023-06-26T03:06:56;109325.25;;;18.16;85.64
48555;BME280;34336;48.270;16.716;2023-06-26T03:09:24;109325.25;;;18.16;86.04
48555;BME280;34336;48.270;16.716;2023-06-26T03:11:51;109325.25;;;18.16;85.80
48555;BME280;34336;48.270;16.716;2023-06-26T03:14:20;109325.25;;;18.16;85.40
48555;BME280;34336;48.270;16.716;2023-06-26T03:16:47;109325.25;;;18.16;85.39
48555;BME280;34336;48.270;16.716;2023-06-26T03:19:14;109325.25;;;18.16;84.87
48555;BME280;34336;48.270;16.716;2023-06-26T03:22:02;109325.25;;;18.16;80.78
48555;BME280;34336;48.270;16.716;2023-06-26T03:24:30;109325.25;;;18.16;75.50
48555;BME280;34336;48.270;16.716;2023-06-26T03:26:58;109325.25;;;18.16;72.09
48555;BME280;34336;48.270;16.716;2023-06-26T03:29:25;109325.25;;;18.16;71.51
48555;BME280;34336;48.270;16.716;2023-06-26T03:31:53;109325.25;;;18.16;68.49
48555;BME280;34336;48.270;16.716;2023-06-26T03:34:20;109325.25;;;18.16;64.88
48555;BME280;34336;48.270;16.716;2023-06-26T03:36:48;109325.25;;;18.16;61.08
48555;BME280;34336;48.270;16.716;2023-06-26T03:39:15;109325.25;;;18.16;57.64
48555;BME280;34336;48.270;16.716;2023-06-26T03:41:43;109325.25;;;18.16;55.85
48555;BME280;34336;48.270;16.716;2023-06-26T03:44:10;109325.25;;;18.16;53.71
48555;BME280;34336;48.270;16.716;2023-06-26T03:46:46;109325.25;;;18.16;51.99
48555;BME280;34336;48.270;16.716;2023-06-26T03:49:13;109325.25;;;18.16;50.67
48555;BME280;34336;48.270;16.716;2023-06-26T03:51:40;109325.25;;;18.16;49.63
48555;BME280;34336;48.270;16.716;2023-06-26T03:54:07;109325.25;;;18.16;48.25
48555;BME280;34336;48.270;16.716;2023-06-26T03:56:33;109325.25;;;18.16;47.32
48555;BME280;34336;48.270;16.716;2023-06-26T03:59:00;109325.25;;;18.16;46.96
48555;BME280;34336;48.270;16.716;2023-06-26T04:01:26;109325.25;;;18.16;47.26
48555;BME280;34336;48.270;16.716;2023-06-26T04:03:54;109325.25;;;18.16;49.21
48555;BME280;34336;48.270;16.716;2023-06-26T04:06:20;109325.25;;;18.16;51.96
48555;BME280;34336;48.270;16.716;2023-06-26T04:08:47;109325.25;;;18.16;52.46
48555;BME280;34336;48.270;16.716;2023-06-26T04:11:15;109325.25;;;18.16;52.20
48555;BME280;34336;48.270;16.716;2023-06-26T04:13:41;109325.25;;;18.16;52.63
48555;BME280;34336;48.270;16.716;2023-06-26T04:16:08;109325.25;;;18.16;50.43
48555;BME280;34336;48.270;16.716;2023-06-26T04:18:34;109325.25;;;18.16;47.47
48555;BME280;34336;48.270;16.716;2023-06-26T04:21:06;109325.25;;;18.16;46.18
48555;BME280;34336;48.270;16.716;2023-06-26T04:23:37;109325.25;;;18.16;45.75
48555;BME280;34336;48.270;16.716;2023-06-26T04:26:04;109325.25;;;18.16;47.29
48555;BME280;34336;48.270;16.716;2023-06-26T04:28:32;109325.25;;;18.16;48.77
48555;BME280;34336;48.270;16.716;2023-06-26T04:30:59;109325.25;;;18.16;47.37
48555;BME280;34336;48.270;16.716;2023-06-26T04:33:26;109325.25;;;18.16;47.69
48555;BME280;34336;48.270;16.716;2023-06-26T04:35:52;109325.25;;;18.16;50.10
48555;BME280;34336;48.270;16.716;2023-06-26T04:38:19;109325.25;;;18.16;47.76
48555;BME280;34336;48.270;16.716;2023-06-26T04:40:46;109325.25;;;18.16;43.70
48555;BME280;34336;48.270;16.716;2023-06-26T04:43:12;109325.25;;;18.16;42.01
48555;BME280;34336;48.270;16.716;2023-06-26T04:45:39;109325.25;;;18.16;40.93
48555;BME280;34336;48.270;16.716;2023-06-26T04:48:05;109325.25;;;18.16;39.22
48555;BME280;34336;48.270;16.716;2023-06-26T04:50:32;109325.25;;;18.16;37.49
48555;BME280;34336;48.270;16.716;2023-06-26T04:53:00;109325.25;;;18.16;38.69
48555;BME280;34336;48.270;16.716;2023-06-26T04:55:27;109325.25;;;18.16;38.92
48555;BME280;34336;48.270;16.716;2023-06-26T04:57:54;109325.25;;;18.16;39.37
48555;BME280;34336;48.270;16.716;2023-06-26T05:00:21;109325.25;;;18.16;37.40
48555;BME280;34336;48.270;16.716;2023-06-26T05:02:47;109325.25;;;18.16;36.48
48555;BME280;34336;48.270;16.716;2023-06-26T05:05:14;109325.25;;;18.16;35.61
48555;BME280;34336;48.270;16.716;2023-06-26T05:07:41;109325.25;;;18.16;36.09
48555;BME280;34336;48.270;16.716;2023-06-26T05:10:08;109325.25;;;18.16;36.17
48555;BME280;34336;48.270;16.716;2023-06-26T05:12:34;109325.25;;;18.16;33.40
48555;BME280;34336;48.270;16.716;2023-06-26T05:15:01;109325.25;;;18.16;34.21
48555;BME280;34336;48.270;16.716;2023-06-26T05:17:27;109325.25;;;18.16;34.06
48555;BME280;34336;48.270;16.716;2023-06-26T05:19:54;109325.25;;;18.16;34.16
48555;BME280;34336;48.270;16.716;2023-06-26T05:22:21;109325.25;;;18.16;33.40
48555;BME280;34336;48.270;16.716;2023-06-26T05:24:48;109325.25;;;18.16;33.71
48555;BME280;34336;48.270;16.716;2023-06-26T05:27:16;109325.25;;;18.16;33.48
48555;BME280;34336;48.270;16.716;2023-06-26T05:29:48;109325.25;;;18.16;33.16
48555;BME280;34336;48.270;16.716;2023-06-26T05:32:15;109325.25;;;18.16;33.14
48555;BME280;34336;48.270;16.716;2023-06-26T05:34:47;109325.25;;;18.16;33.18
48555;BME280;34336;48.270;16.716;2023-06-26T05:37:14;109325.25;;;18.16;32.62
48555;BME280;34336;48.270;16.716;2023-06-26T05:39:44;109325.25;;;18.16;32.19
48555;BME280;34336;48.270;16.716;2023-06-26T05:42:11;109325.25;;;18.16;29.86
48555;BME280;34336;48.270;16.716;2023-06-26T05:44:38;109325.25;;;18.16;30.58
48555;BME280;34336;48.270;16.716;2023-06-26T05:47:05;109325.25;;;18.16;30.54
48555;BME280;34336;48.270;16.716;2023-06-26T05:49:33;109325.25;;;18.16;31.68
48555;BME280;34336;48.270;16.716;2023-06-26T05:51:59;109325.25;;;18.16;30.22
48555;BME280;34336;48.270;16.716;2023-06-26T05:54:26;109325.25;;;18.16;30.70
48555;BME280;34336;48.270;16.716;2023-06-26T05:56:54;109325.25;;;18.16;31.33
48555;BME280;34336;48.270;16.716;2023-06-26T05:59:22;109325.25;;;18.16;30.33
48555;BME280;34336;48.270;16.716;2023-06-26T06:01:49;109325.25;;;18.16;33.10
48555;BME280;34336;48.270;16.716;2023-06-26T06:04:16;109325.25;;;18.16;34.27
48555;BME280;34336;48.270;16.716;2023-06-26T06:06:42;109325.25;;;18.16;31.95
48555;BME280;34336;48.270;16.716;2023-06-26T06:09:09;109325.25;;;18.16;30.72
48555;BME280;34336;48.270;16.716;2023-06-26T06:11:36;109325.25;;;18.16;30.51
48555;BME280;34336;48.270;16.716;2023-06-26T06:14:03;109325.25;;;18.16;31.54
48555;BME280;34336;48.270;16.716;2023-06-26T06:16:30;109325.25;;;18.16;30.27
48555;BME280;34336;48.270;16.716;2023-06-26T06:18:57;109325.25;;;18.16;31.14
48555;BME280;34336;48.270;16.716;2023-06-26T06:21:23;109325.25;;;18.16;30.87
48555;BME280;34336;48.270;16.716;2023-06-26T06:23:50;109325.25;;;18.16;30.98
48555;BME280;34336;48.270;16.716;2023-06-26T06:26:17;109325.25;;;18.16;32.10
48555;BME280;34336;48.270;16.716;2023-06-26T06:28:43;109325.25;;;18.16;30.75
48555;BME280;34336;48.270;16.716;2023-06-26T06:31:10;109325.25;;;18.16;30.20
48555;BME280;34336;48.270;16.716;2023-06-26T06:33:36;109325.25;;;18.16;29.83
48555;BME280;34336;48.270;16.716;2023-06-26T06:36:04;109325.25;;;18.16;28.59
48555;BME280;34336;48.270;16.716;2023-06-26T06:38:31;109325.25;;;18.16;29.01
48555;BME280;34336;48.270;16.716;2023-06-26T06:40:58;109325.25;;;18.16;30.65
48555;BME280;34336;48.270;16.716;2023-06-26T06:43:24;109325.25;;;18.16;29.43
48555;BME280;34336;48.270;16.716;2023-06-26T06:45:51;109325.25;;;18.16;27.87
48555;BME280;34336;48.270;16.716;2023-06-26T06:48:17;109325.25;;;18.16;30.20
48555;BME280;34336;48.270;16.716;2023-06-26T06:50:44;109325.25;;;18.16;30.05
48555;BME280;34336;48.270;16.716;2023-06-26T06:53:10;109325.25;;;18.16;31.04
48555;BME280;34336;48.270;16.716;2023-06-26T06:55:37;109325.25;;;18.16;31.63
48555;BME280;34336;48.270;16.716;2023-06-26T06:58:03;109325.25;;;18.16;31.44
48555;BME280;34336;48.270;16.716;2023-06-26T07:00:31;109325.25;;;18.16;31.10
48555;BME280;34336;48.270;16.716;2023-06-26T07:02:58;109325.25;;;18.16;29.54
48555;BME280;34336;48.270;16.716;2023-06-26T07:05:30;109325.25;;;18.16;30.88
48555;BME280;34336;48.270;16.716;2023-06-26T07:07:56;109325.25;;;18.16;30.03
48555;BME280;34336;48.270;16.716;2023-06-26T07:10:26;109325.25;;;18.16;30.02
48555;BME280;34336;48.270;16.716;2023-06-26T07:12:52;109325.25;;;18.16;29.91
48555;BME280;34336;48.270;16.716;2023-06-26T07:15:19;109325.25;;;18.16;28.24
48555;BME280;34336;48.270;16.716;2023-06-26T07:17:46;109325.25;;;18.16;28.80
48555;BME280;34336;48.270;16.716;2023-06-26T07:20:12;109325.25;;;18.16;29.88
48555;BME280;34336;48.270;16.716;2023-06-26T07:22:42;109325.25;;;18.16;29.31
48555;BME280;34336;48.270;16.716;2023-06-26T07:25:09;109325.25;;;18.16;29.20
48555;BME280;34336;48.270;16.716;2023-06-26T07:27:36;109325.25;;;18.16;31.29
48555;BME280;34336;48.270;16.716;2023-06-26T07:30:03;109325.25;;;18.16;31.87
48555;BME280;34336;48.270;16.716;2023-06-26T07:32:30;109325.25;;;18.16;32.20
48555;BME280;34336;48.270;16.716;2023-06-26T07:34:56;109325.25;;;18.16;32.63
48555;BME280;34336;48.270;16.716;2023-06-26T07:37:23;109325.25;;;18.16;32.23
48555;BME280;34336;48.270;16.716;2023-06-26T07:39:49;109325.25;;;18.16;32.75
48555;BME280;34336;48.270;16.716;2023-06-26T07:42:16;109325.25;;;18.16;33.32
48555;BME280;34336;48.270;16.716;2023-06-26T07:44:42;109325.25;;;18.16;34.19
48555;BME280;34336;48.270;16.716;2023-06-26T07:47:09;109325.25;;;18.16;31.98
48555;BME280;34336;48.270;16.716;2023-06-26T07:49:36;109325.25;;;18.16;34.32
48555;BME280;34336;48.270;16.716;2023-06-26T07:52:03;109325.25;;;18.16;34.05
48555;BME280;34336;48.270;16.716;2023-06-26T07:54:29;109325.25;;;18.16;34.38
48555;BME280;34336;48.270;16.716;2023-06-26T07:56:57;109325.25;;;18.16;34.00
48555;BME280;34336;48.270;16.716;2023-06-26T07:59:24;109325.25;;;18.16;33.05
48555;BME280;34336;48.270;16.716;2023-06-26T08:01:52;109325.25;;;18.16;34.29
48555;BME280;34336;48.270;16.716;2023-06-26T08:04:20;109325.25;;;18.16;34.33
48555;BME280;34336;48.270;16.716;2023-06-26T08:06:50;109325.25;;;18.16;34.89
48555;BME280;34336;48.270;16.716;2023-06-26T08:09:18;109325.25;;;18.16;34.94
48555;BME280;34336;48.270;16.716;2023-06-26T08:11:45;109325.25;;;18.16;35.17
48555;BME280;34336;48.270;16.716;2023-06-26T08:14:12;109325.25;;;18.16;36.07
48555;BME280;34336;48.270;16.716;2023-06-26T08:16:39;109325.25;;;18.16;35.69
48555;BME280;34336;48.270;16.716;2023-06-26T08:19:06;109325.25;;;18.16;35.31
48555;BME280;34336;48.270;16.716;2023-06-26T08:21:32;109325.25;;;18.16;34.73
48555;BME280;34336;48.270;16.716;2023-06-26T08:23:59;109325.25;;;18.16;34.43
48555;BME280;34336;48.270;16.716;2023-06-26T08:26:26;109325.25;;;18.16;33.40
48555;BME280;34336;48.270;16.716;2023-06-26T08:28:52;109325.25;;;18.16;34.07
48555;BME280;34336;48.270;16.716;2023-06-26T08:31:19;109325.25;;;18.16;35.05
48555;BME280;34336;48.270;16.716;2023-06-26T08:33:46;109325.25;;;18.16;35.31
48555;BME280;34336;48.270;16.716;2023-06-26T08:36:13;109325.25;;;18.16;36.22
48555;BME280;34336;48.270;16.716;2023-06-26T08:38:39;109325.25;;;18.16;35.10
48555;BME280;34336;48.270;16.716;2023-06-26T08:41:07;109325.25;;;18.16;34.79
48555;BME280;34336;48.270;16.716;2023-06-26T08:43:35;109325.25;;;18.16;34.94
48555;BME280;34336;48.270;16.716;2023-06-26T08:46:02;109325.25;;;18.16;36.21
48555;BME280;34336;48.270;16.716;2023-06-26T08:48:29;109325.25;;;18.16;35.96
48555;BME280;34336;48.270;16.716;2023-06-26T08:50:57;109325.25;;;18.16;36.25
48555;BME280;34336;48.270;16.716;2023-06-26T08:53:36;109325.25;;;18.16;35.72
48555;BME280;34336;48.270;16.716;2023-06-26T08:56:07;109325.25;;;18.16;36.11
48555;BME280;34336;48.270;16.716;2023-06-26T08:58:34;109325.25;;;18.16;34.50
48555;BME280;34336;48.270;16.716;2023-06-26T09:01:03;109325.25;;;18.16;35.42
48555;BME280;34336;48.270;16.716;2023-06-26T09:03:30;109325.25;;;18.16;35.56
48555;BME280;34336;48.270;16.716;2023-06-26T09:05:57;109325.25;;;18.16;35.72
48555;BME280;34336;48.270;16.716;2023-06-26T09:08:24;109325.25;;;18.16;35.54
48555;BME280;34336;48.270;16.716;2023-06-26T09:10:51;109325.25;;;18.16;36.18
48555;BME280;34336;48.270;16.716;2023-06-26T09:13:18;109325.25;;;18.16;35.97
48555;BME280;34336;48.270;16.716;2023-06-26T09:15:55;109325.25;;;18.16;36.06
48555;BME280;34336;48.270;16.716;2023-06-26T09:18:25;109325.25;;;18.16;36.21
48555;BME280;34336;48.270;16.716;2023-06-26T09:20:55;109325.25;;;18.16;36.01
48555;BME280;34336;48.270;16.716;2023-06-26T09:23:21;109325.25;;;18.16;35.68
48555;BME280;34336;48.270;16.716;2023-06-26T09:25:48;109325.25;;;18.16;34.52
48555;BME280;34336;48.270;16.716;2023-06-26T09:28:17;109325.25;;;18.16;35.21
48555;BME280;34336;48.270;16.716;2023-06-26T09:30:45;109325.25;;;18.16;35.46
48555;BME280;34336;48.270;16.716;2023-06-26T09:33:15;109325.25;;;18.16;35.01
48555;BME280;34336;48.270;16.716;2023-06-26T09:35:42;109325.25;;;18.16;34.65
48555;BME280;34336;48.270;16.716;2023-06-26T09:38:09;109325.25;;;18.16;34.66
48555;BME280;34336;48.270;16.716;2023-06-26T09:40:36;109325.25;;;18.16;35.27
48555;BME280;34336;48.270;16.716;2023-06-26T09:43:05;109325.25;;;18.16;35.14
48555;BME280;34336;48.270;16.716;2023-06-26T09:45:33;109325.25;;;18.16;35.29
48555;BME280;34336;48.270;16.716;2023-06-26T09:48:00;109325.25;;;18.16;34.52
48555;BME280;34336;48.270;16.716;2023-06-26T09:50:29;109325.25;;;18.16;35.45
48555;BME280;34336;48.270;16.716;2023-06-26T09:53:06;109325.25;;;18.16;35.86
48555;BME280;34336;48.270;16.716;2023-06-26T09:55:37;109325.25;;;18.16;34.42
48555;BME280;34336;48.270;16.716;2023-06-26T09:58:04;109325.25;;;18.16;34.69
48555;BME280;34336;48.270;16.716;2023-06-26T10:00:31;109325.25;;;18.16;35.38
48555;BME280;34336;48.270;16.716;2023-06-26T10:02:59;109325.25;;;18.16;35.68
48555;BME280;34336;48.270;16.716;2023-06-26T10:05:28;109325.25;;;18.16;34.48
48555;BME280;34336;48.270;16.716;2023-06-26T10:07:56;109325.25;;;18.16;34.56
48555;BME280;34336;48.270;16.716;2023-06-26T10:10:25;109325.25;;;18.16;35.51
48555;BME280;34336;48.270;16.716;2023-06-26T10:13:01;109325.25;;;18.16;36.71
48555;BME280;34336;48.270;16.716;2023-06-26T10:15:31;109325.25;;;18.16;36.11
48555;BME280;34336;48.270;16.716;2023-06-26T10:18:02;109325.25;;;18.16;35.61
48555;BME280;34336;48.270;16.716;2023-06-26T10:20:30;109325.25;;;18.16;34.80
48555;BME280;34336;48.270;16.716;2023-06-26T10:23:00;109325.25;;;18.16;35.83
48555;BME280;34336;48.270;16.716;2023-06-26T10:25:30;109325.25;;;18.16;34.38
48555;BME280;34336;48.270;16.716;2023-06-26T10:28:00;109325.25;;;18.16;34.41
48555;BME280;34336;48.270;16.716;2023-06-26T10:30:31;109325.25;;;18.16;34.04
48555;BME280;34336;48.270;16.716;2023-06-26T10:33:00;109325.25;;;18.16;34.57
48555;BME280;34336;48.270;16.716;2023-06-26T10:35:29;109325.25;;;18.16;35.08
48555;BME280;34336;48.270;16.716;2023-06-26T10:38:01;109325.25;;;18.16;35.33
48555;BME280;34336;48.270;16.716;2023-06-26T10:43:09;109325.25;;;18.16;35.88
48555;BME280;34336;48.270;16.716;2023-06-26T10:45:45;109325.25;;;18.16;37.30
48555;BME280;34336;48.270;16.716;2023-06-26T10:48:14;109325.25;;;18.16;35.83
48555;BME280;34336;48.270;16.716;2023-06-26T10:50:42;109325.25;;;18.16;36.40
48555;BME280;34336;48.270;16.716;2023-06-26T10:53:11;109325.25;;;18.16;35.67
48555;BME280;34336;48.270;16.716;2023-06-26T10:55:42;109325.25;;;18.16;36.08
48555;BME280;34336;48.270;16.716;2023-06-26T10:58:29;109325.25;;;18.16;36.03
48555;BME280;34336;48.270;16.716;2023-06-26T11:03:39;109325.25;;;18.16;35.13
48555;BME280;34336;48.270;16.716;2023-06-26T11:09:00;109325.25;;;18.16;35.38
48555;BME280;34336;48.270;16.716;2023-06-26T11:14:16;109325.25;;;18.16;35.38
48555;BME280;34336;48.270;16.716;2023-06-26T11:16:43;109325.25;;;18.16;33.41
48555;BME280;34336;48.270;16.716;2023-06-26T11:19:10;109325.25;;;18.16;33.74
48555;BME280;34336;48.270;16.716;2023-06-26T11:21:38;109325.25;;;18.16;35.01
48555;BME280;34336;48.270;16.716;2023-06-26T11:24:06;109325.25;;;18.16;35.99
48555;BME280;34336;48.270;16.716;2023-06-26T11:26:44;109325.25;;;18.16;35.46
48555;BME280;34336;48.270;16.716;2023-06-26T11:29:11;109325.25;;;18.16;34.72
48555;BME280;34336;48.270;16.716;2023-06-26T11:31:40;109325.25;;;18.16;34.65
48555;BME280;34336;48.270;16.716;2023-06-26T11:34:11;109325.25;;;18.16;33.89
48555;BME280;34336;48.270;16.716;2023-06-26T11:36:39;109325.25;;;18.16;33.63
48555;BME280;34336;48.270;16.716;2023-06-26T11:39:09;109325.25;;;18.16;34.09
48555;BME280;34336;48.270;16.716;2023-06-26T11:41:38;109325.25;;;18.16;33.42
48555;BME280;34336;48.270;16.716;2023-06-26T11:44:09;109325.25;;;18.16;33.18
48555;BME280;34336;48.270;16.716;2023-06-26T11:46:37;109325.25;;;18.16;35.30
48555;BME280;34336;48.270;16.716;2023-06-26T11:49:06;109325.25;;;18.16;33.72
48555;BME280;34336;48.270;16.716;2023-06-26T11:51:35;109325.25;;;18.16;35.38
48555;BME280;34336;48.270;16.716;2023-06-26T11:54:05;109325.25;;;18.16;35.38
48555;BME280;34336;48.270;16.716;2023-06-26T11:56:32;109325.25;;;18.16;34.56
48555;BME280;34336;48.270;16.716;2023-06-26T11:59:04;109325.25;;;18.16;34.80
48555;BME280;34336;48.270;16.716;2023-06-26T12:01:39;109325.25;;;18.16;33.29
48555;BME280;34336;48.270;16.716;2023-06-26T12:04:08;109325.25;;;18.16;33.50
48555;BME280;34336;48.270;16.716;2023-06-26T12:06:39;109325.25;;;18.16;34.82
48555;BME280;34336;48.270;16.716;2023-06-26T12:09:08;109325.25;;;18.16;33.13
48555;BME280;34336;48.270;16.716;2023-06-26T12:11:37;109325.25;;;18.16;33.61
48555;BME280;34336;48.270;16.716;2023-06-26T12:14:12;109325.25;;;18.16;34.32
48555;BME280;34336;48.270;16.716;2023-06-26T12:16:42;109325.25;;;18.16;33.00
48555;BME280;34336;48.270;16.716;2023-06-26T12:19:13;109325.25;;;18.16;34.19
48555;BME280;34336;48.270;16.716;2023-06-26T12:24:08;109325.25;;;18.16;33.86
48555;BME280;34336;48.270;16.716;2023-06-26T12:26:36;109325.25;;;18.16;34.72
48555;BME280;34336;48.270;16.716;2023-06-26T12:29:04;109325.25;;;18.16;34.77
48555;BME280;34336;48.270;16.716;2023-06-26T12:31:31;109325.25;;;18.16;34.56
48555;BME280;34336;48.270;16.716;2023-06-26T12:34:00;109325.25;;;18.16;33.81
48555;BME280;34336;48.270;16.716;2023-06-26T12:36:27;109325.25;;;18.16;33.57
48555;BME280;34336;48.270;16.716;2023-06-26T12:38:55;109325.25;;;18.16;33.74
48555;BME280;34336;48.270;16.716;2023-06-26T12:41:26;109325.25;;;18.16;32.94
48555;BME280;34336;48.270;16.716;2023-06-26T12:43:57;109325.25;;;18.16;34.02
48555;BME280;34336;48.270;16.716;2023-06-26T12:46:34;109325.25;;;18.16;34.79
48555;BME280;34336;48.270;16.716;2023-06-26T12:49:04;109325.25;;;18.16;32.93
48555;BME280;34336;48.270;16.716;2023-06-26T12:51:52;109325.25;;;18.16;33.77
48555;BME280;34336;48.270;16.716;2023-06-26T12:54:19;109325.25;;;18.16;33.42
48555;BME280;34336;48.270;16.716;2023-06-26T12:56:47;109325.25;;;18.16;34.73
48555;BME280;34336;48.270;16.716;2023-06-26T12:59:14;109325.25;;;18.16;33.82
48555;BME280;34336;48.270;16.716;2023-06-26T13:01:42;109325.25;;;18.16;34.26
48555;BME280;34336;48.270;16.716;2023-06-26T13:04:10;109325.25;;;18.16;34.90